Date,TemperatureHighF,TemperatureAvgF,TemperatureLowF,DewpointHighF,DewpointAvgF,DewpointLowF,HumidityHigh,HumidityAvg,HumidityLow,PressureMaxIn,PressureMinIn,WindSpeedMaxMPH,WindSpeedAvgMPH,GustSpeedMaxMPH,PrecipitationSumIn
2013-1-1,27.7,15.5,4.1,16.3,8.5,0.2,86,75,48,30.27,30.07,10,3,10,0.00
2013-1-2,37.6,24.7,13.1,29.1,20.0,8.9,86,82,69,30.19,30.00,12,4,12,0.01
2013-1-3,30.2,23.5,17.1,26.5,18.5,13.3,86,81,67,30.37,30.18,12,4,12,0.01
2013-1-4,38.9,23.7,16.0,24.3,16.6,12.8,89,75,52,30.27,30.10,10,3,10,0.01
2013-1-5,34.6,24.3,15.5,26.8,18.1,12.3,91,77,60,30.18,29.97,16,5,16,0.02
2013-1-6,40.5,25.9,13.7,25.2,18.6,10.0,86,75,50,30.28,30.09,12,4,12,0.01
2013-1-7,42.8,33.0,25.0,30.1,25.4,20.8,88,74,58,30.09,29.92,12,4,12,0.01
2013-1-8,46.4,32.7,22.3,32.3,26.8,19.8,92,80,57,30.10,29.82,11,4,11,0.01
2013-1-9,52.6,37.2,27.0,35.8,29.1,23.1,86,74,47,30.38,30.10,10,3,10,0.01
2013-1-10,39.8,36.3,32.2,35.7,31.0,25.5,96,82,59,30.27,29.64,15,4,15,0.10
2013-1-11,52.4,40.3,25.9,47.4,37.5,18.0,97,90,71,29.74,29.35,36,6,36,0.02
2013-1-12,25.9,19.1,10.8,18.8,9.7,3.9,76,67,53,30.11,29.74,28,10,28,0.00
2013-1-13,22.3,12.9,7.6,8.6,4.4,2.0,79,69,45,30.20,30.07,22,6,22,0.00
2013-1-29,60.6,33.9,30.6,60.6,30.7,28.2,100,88,86,30.08,29.59,18,6,18,14.81
2013-1-30,30.4,22.4,13.3,28.6,17.2,8.6,95,81,66,29.90,29.61,24,8,24,0.05
2013-1-31,67.5,8.0,0.4,67.5,-0.1,-6.5,100,69,57,30.41,29.90,24,8,24,14.87
2013-2-1,27.4,14.3,-2.9,19.8,7.1,-8.6,100,73,64,30.37,30.02,16,5,16,14.87
2013-2-2,38.5,30.5,24.7,31.6,24.5,19.2,85,78,69,30.17,30.02,19,4,19,0.00
2013-2-3,44.1,34.4,20.7,30.5,24.6,14.4,80,68,47,30.18,29.77,20,6,20,0.00
2013-2-4,37.1,27.4,22.3,30.2,22.6,19.3,90,82,74,30.00,29.75,21,4,21,0.00
2013-2-5,50.4,38.1,25.6,34.7,28.1,23.1,92,69,44,30.05,29.80,22,4,22,0.00
2013-2-6,55.6,41.3,30.8,40.0,32.6,24.8,86,72,54,30.05,29.82,13,4,13,0.00
2013-2-7,41.8,34.5,29.0,35.8,30.0,23.3,89,83,78,30.21,29.86,15,5,15,0.00
2013-2-8,34.6,28.5,25.2,27.8,24.4,22.1,92,85,75,30.30,30.10,12,4,12,0.00
2013-2-9,51.3,38.1,27.7,38.7,32.1,25.7,92,80,60,30.12,29.66,16,8,16,0.00
2013-2-10,46.3,36.9,29.9,41.8,32.6,23.0,96,84,72,29.79,29.27,35,13,35,0.07
2013-2-11,36.0,29.9,22.3,25.4,22.4,17.6,85,74,62,30.13,29.79,36,9,36,0.00
2013-2-12,51.1,34.1,19.8,29.5,22.1,16.6,90,65,36,30.12,29.88,14,3,14,0.00
2013-2-13,27.7,27.4,26.6,21.1,20.2,19.0,76,74,70,29.89,29.85,4,2,4,0.00
2013-2-14,68.4,27.3,21.4,68.4,19.8,14.7,100,73,64,30.24,30.14,17,7,17,14.94
2013-2-15,33.7,21.7,14.0,22.2,14.7,9.8,90,75,49,30.32,30.24,14,4,14,0.00
2013-2-16,34.9,24.1,10.8,25.6,18.5,7.4,90,79,59,30.29,29.97,9,3,9,0.04
2013-2-17,55.8,38.8,22.7,37.5,28.5,19.1,88,68,48,29.97,29.56,15,6,15,0.00
2013-2-18,43.6,32.1,21.4,33.8,24.7,15.2,91,74,62,30.04,29.53,28,8,28,0.01
2013-2-19,26.5,16.9,9.4,16.6,4.3,-0.5,77,59,33,30.33,30.04,23,8,23,0.00
2013-2-20,24.5,16.1,5.4,8.8,4.0,-1.6,75,59,47,30.33,30.16,14,6,14,0.00
2013-2-21,25.4,21.9,20.7,20.0,14.1,0.0,91,72,55,30.20,29.81,19,8,19,14.99
2013-2-22,26.5,19.5,12.4,18.9,14.6,7.7,91,81,67,30.00,29.81,17,6,17,14.27
2013-2-23,41.4,23.2,7.2,28.1,16.6,0.0,89,77,55,29.97,29.80,42,5,42,13.93
2013-2-24,89.6,31.8,20.2,32.8,24.4,17.0,89,75,46,30.09,29.86,8,2,8,14.33
2013-4-24,82.4,49.2,39.8,43.0,32.1,0.0,100,56,29,30.54,29.98,90,8,90,21.84
2013-4-25,70.2,51.8,32.4,38.9,33.0,26.4,81,54,27,30.23,30.01,17,5,18,0.00
2013-4-26,76.1,58.6,48.8,50.6,43.8,36.4,86,59,38,30.18,30.00,15,6,15,21.84
2013-4-27,72.5,55.7,42.7,53.1,46.7,40.5,94,74,45,30.20,29.94,8,2,9,21.84
2013-4-28,52.2,50.1,47.9,46.2,45.4,44.2,88,84,77,29.95,29.90,6,2,6,0.00
2013-4-29,87.3,78.8,32.0,59.2,53.5,32.0,100,43,28,31.60,29.52,8,3,8,21.77
2013-4-30,72.7,68.4,61.0,58.3,49.4,39.5,62,51,43,29.89,29.50,20,8,20,0.00
2013-5-1,61.0,41.1,32.4,43.2,36.0,30.5,94,83,44,30.39,29.89,29,10,29,1.61
2013-5-2,48.6,39.1,32.4,33.2,30.7,27.9,95,73,51,30.50,30.36,22,6,22,1.03
2013-5-3,46.1,39.4,30.8,32.2,29.3,26.1,83,68,54,30.36,30.02,24,7,24,0.00
2013-5-4,42.8,38.7,34.7,39.5,35.7,31.2,93,89,75,30.12,29.95,21,8,21,0.60
2013-5-5,54.4,46.8,40.7,47.9,43.1,38.8,94,87,78,30.15,30.09,14,4,14,0.00
2013-5-6,67.7,54.8,46.4,53.8,48.0,44.2,92,79,56,30.14,30.03,9,2,9,0.01
2013-5-7,76.9,62.1,47.2,57.2,51.6,0.0,93,71,43,30.07,29.95,54,2,54,23.28
2013-5-8,69.1,61.9,55.1,59.8,55.9,51.3,91,81,70,29.96,29.89,7,2,7,23.28
2013-5-9,67.5,58.8,55.3,58.4,55.3,52.6,95,88,68,29.99,29.86,14,4,14,23.28
2013-5-10,68.4,57.6,48.2,53.4,47.7,43.3,91,72,44,30.08,29.99,16,4,16,23.28
2013-5-11,60.1,54.2,45.9,46.2,31.4,22.6,75,44,25,30.24,30.02,22,6,22,23.28
2013-5-12,67.5,53.3,36.4,33.3,28.2,23.2,72,40,24,30.25,30.09,7,2,7,23.28
2013-5-13,84.4,66.7,46.4,53.8,43.6,29.2,73,46,25,30.10,29.85,16,5,16,23.28
2013-5-14,102.2,81.6,60.1,59.9,53.5,44.0,83,44,16,29.85,29.66,22,5,22,23.28
2013-5-15,83.5,69.6,68.4,83.5,41.5,39.8,100,36,30,29.85,29.78,9,6,9,26.80
2013-5-16,68.4,68.4,68.4,41.1,41.1,41.1,37,37,37,29.85,29.85,7,7,7,26.80
2013-6-17,87.8,82.4,72.9,61.2,58.0,55.5,55,44,37,29.90,29.84,10,3,10,26.80
2013-6-18,84.4,74.0,65.0,65.1,56.7,52.4,79,56,35,29.98,29.86,8,1,8,26.80
2013-6-19,89.1,76.6,64.4,68.3,62.2,53.7,84,62,44,29.90,29.79,13,4,13,26.80
2013-6-20,91.4,80.8,68.8,73.4,69.1,63.4,86,69,53,29.86,29.71,18,6,18,26.80
2013-6-21,95.2,85.6,77.0,74.0,71.5,69.8,79,64,46,29.77,29.67,19,7,19,26.80
2013-6-22,92.5,81.7,70.6,73.1,67.2,59.9,79,62,46,29.90,29.68,22,7,22,26.80
2013-6-23,81.7,74.5,64.3,70.2,67.0,61.7,92,78,65,29.86,29.64,17,4,17,26.80
2013-6-24,83.7,75.9,64.8,73.7,69.8,61.8,92,82,67,29.91,29.62,18,4,18,26.80
2013-6-25,89.5,80.5,71.3,75.6,70.5,63.7,89,72,52,29.71,29.57,15,4,15,26.80
2013-6-26,91.8,82.3,73.8,72.9,67.3,60.8,92,63,39,29.79,29.57,13,3,13,26.80
2013-6-27,84.6,75.2,69.3,71.2,65.5,60.1,90,73,58,29.91,29.78,14,2,14,26.80
2013-6-28,71.6,71.3,70.9,65.0,64.4,63.2,81,79,76,29.87,29.84,3,1,3,0.00
2013-7-10,74.2,71.1,32.0,62.8,60.8,32.0,100,70,67,30.65,29.94,54,2,54,0.00
2013-7-11,88.2,76.9,65.0,65.1,62.0,58.2,84,62,42,29.99,29.86,12,4,12,0.00
2013-7-12,91.1,79.3,67.3,72.6,65.9,59.8,77,64,52,29.90,29.81,16,7,18,0.00
2013-7-13,92.2,80.7,72.4,74.1,67.9,62.2,75,65,53,29.87,29.81,15,7,15,0.43
2013-7-14,88.4,78.8,70.0,67.0,63.1,59.7,75,60,40,30.04,29.87,14,5,14,0.00
2013-7-15,92.0,79.4,66.1,71.6,66.3,60.1,84,65,46,30.09,30.00,10,3,10,0.00
2013-7-16,92.5,81.3,68.4,69.5,67.3,64.1,88,65,44,30.15,30.06,8,2,8,0.00
2013-7-17,97.2,83.7,71.6,74.9,70.1,66.9,87,66,42,30.19,30.05,9,2,9,0.00
2013-7-18,95.9,84.7,72.0,73.1,69.0,66.0,85,62,41,30.07,29.83,14,4,14,0.03
2013-7-19,94.7,84.1,76.0,72.8,66.7,62.2,71,57,39,29.85,29.78,11,3,11,0.06
2013-7-20,92.5,79.9,67.3,68.3,62.2,55.7,77,56,35,29.91,29.75,12,2,12,0.00
2013-7-21,95.2,80.6,70.9,72.8,68.6,62.8,85,69,47,29.83,29.67,13,2,13,0.04
2013-7-22,96.7,82.7,68.8,77.1,71.1,62.9,92,70,49,29.75,29.65,14,3,14,0.00
2013-7-23,84.4,74.3,65.2,66.3,63.2,61.2,91,69,53,29.93,29.73,19,4,19,0.08
2013-7-24,84.2,73.9,61.7,64.8,61.0,56.3,85,66,47,29.98,29.88,12,2,12,0.08
2013-7-25,83.0,74.1,68.6,68.2,64.7,61.9,86,73,53,29.94,29.88,10,3,10,0.08
2013-7-26,76.9,70.2,61.4,66.7,58.8,52.6,93,69,46,30.00,29.87,16,4,16,0.08
2013-7-27,73.8,64.8,55.1,53.2,50.1,46.4,85,61,41,30.02,29.90,15,3,15,0.08
2013-7-28,81.4,67.2,51.8,55.2,50.0,45.8,86,56,36,29.96,29.90,10,1,10,0.08
2013-7-29,66.6,63.3,59.0,62.9,57.3,48.4,94,82,54,30.07,29.92,12,4,12,0.17
2013-7-30,75.6,69.3,64.4,67.1,64.8,62.6,96,86,75,30.13,30.03,12,2,12,0.08
2013-7-31,88.0,75.6,63.2,70.6,65.2,61.2,95,72,49,30.15,30.06,8,1,8,0.08
2013-8-1,120.2,74.8,64.4,99.9,65.7,60.7,100,75,51,30.13,29.87,16,3,141,2.69
2013-8-2,85.5,74.9,65.9,71.1,66.1,60.2,93,75,57,30.03,29.83,13,3,13,2.69
2013-8-3,82.3,71.9,63.7,61.3,59.0,57.4,82,65,46,30.19,30.03,12,3,12,2.69
2013-8-4,81.7,71.3,61.6,66.5,61.0,55.0,85,71,50,30.19,30.03,11,4,11,2.69
2013-8-5,88.0,76.4,68.2,75.7,70.8,65.0,94,83,65,30.04,29.86,10,2,11,2.69
2013-8-6,91.1,78.7,66.2,75.8,71.2,64.1,94,79,57,29.97,29.81,15,2,15,2.69
2013-8-7,83.7,76.2,68.2,73.2,65.0,58.3,89,70,44,30.02,29.85,11,3,11,2.69
2013-8-8,79.2,71.9,65.0,66.7,63.3,60.6,87,75,61,30.05,29.96,6,1,6,2.69
2013-8-9,81.2,72.6,64.4,70.0,63.5,57.9,93,74,55,30.16,30.03,15,2,15,2.69
2013-8-10,85.7,72.6,59.2,66.3,60.9,55.0,89,68,47,30.21,30.08,9,2,9,2.69
2013-8-11,90.4,76.9,65.5,71.8,66.0,59.9,84,70,52,30.13,29.99,12,3,12,2.69
2013-8-12,84.2,76.2,68.4,70.2,65.2,59.3,90,70,44,30.08,30.01,12,3,12,2.69
2013-8-13,81.4,71.9,63.2,62.2,58.4,55.3,83,64,43,30.18,30.08,11,2,11,2.69
2013-8-14,80.5,67.5,32.0,63.0,57.5,32.0,100,71,50,30.89,30.08,54,3,54,1.33
2013-8-15,66.6,62.8,59.6,61.6,59.4,58.2,96,89,81,30.11,30.04,14,4,14,0.80
2013-8-16,76.7,67.4,61.7,62.1,58.9,56.9,89,75,56,30.18,30.10,11,3,11,0.00
2013-8-17,82.6,70.1,59.4,62.8,58.0,54.9,89,68,45,30.20,30.12,10,2,11,0.00
2013-8-18,82.8,70.1,55.8,62.9,58.6,52.8,92,69,45,30.16,30.05,12,3,12,0.00
2013-8-19,88.9,75.9,64.3,70.2,65.9,60.3,89,73,52,30.08,29.94,15,4,15,0.00
2013-8-20,92.0,79.9,69.5,72.8,69.0,65.5,88,71,51,29.98,29.92,13,5,14,0.00
2013-8-21,95.8,81.9,72.0,74.0,69.7,66.2,83,68,48,30.01,29.95,13,5,13,0.00
2013-8-22,87.8,78.2,69.8,70.6,68.1,65.0,87,72,55,30.11,29.98,16,3,16,0.01
2013-8-23,93.1,80.3,70.2,74.8,69.5,66.6,90,72,47,30.08,29.98,12,4,12,0.00
2013-8-24,94.5,82.8,74.3,74.5,71.2,68.1,83,69,51,30.08,30.00,16,6,16,0.00
2013-8-25,98.3,84.2,72.0,74.8,71.8,68.3,89,68,43,30.12,30.04,15,5,15,0.00
2013-8-26,99.0,85.4,73.4,74.3,71.2,68.6,86,64,44,30.09,29.96,13,5,13,0.00
2013-8-27,100.3,86.2,75.6,72.6,69.3,64.9,75,59,38,29.98,29.91,13,5,13,0.00
2013-8-28,101.7,82.2,32.0,92.5,66.8,32.0,100,62,33,30.69,29.94,67,3,67,4.39
2013-8-29,99.4,84.1,70.7,76.7,70.9,65.3,89,67,41,30.02,29.91,10,3,10,4.39
2013-8-30,120.2,84.9,71.5,78.4,71.3,0.0,84,68,41,29.93,29.85,13,2,13,2.99
2013-8-31,96.7,81.9,72.5,76.2,71.1,66.9,91,72,41,29.92,29.80,11,1,13,0.00
2013-9-1,83.2,75.8,67.9,70.4,63.5,57.7,91,68,44,30.02,29.78,19,4,19,0.04
2013-9-2,81.2,69.5,59.6,61.1,56.8,51.2,91,67,39,30.12,30.01,12,2,12,0.00
2013-9-3,89.3,72.1,55.8,65.2,59.2,52.1,93,67,42,30.11,30.03,7,2,7,0.00
2013-9-4,85.1,71.0,67.0,67.8,61.5,59.8,79,72,55,30.16,30.04,6,2,6,0.00
2013-9-5,81.7,71.1,68.2,68.3,64.2,62.6,88,79,60,30.20,30.13,7,2,7,0.04
2013-9-6,95.6,86.5,0.0,77.2,69.6,0.0,100,58,43,31.49,29.92,110,6,110,4.48
2013-9-7,95.0,79.5,70.2,73.5,69.1,65.1,85,72,43,29.94,29.87,12,3,13,0.00
2013-9-8,81.4,73.4,71.1,73.1,69.8,68.3,92,88,76,29.94,29.89,7,2,7,0.00
2013-9-10,80.5,74.7,68.6,74.8,68.8,65.0,100,82,73,30.08,29.92,13,3,13,4.71
2013-9-11,114.8,69.7,67.7,99.9,67.3,65.3,100,92,76,30.14,30.05,7,1,7,5.24
2013-9-12,79.2,71.6,63.5,67.1,57.1,50.2,91,63,40,30.24,30.12,15,3,15,0.25
2013-9-13,81.7,66.6,32.0,56.1,51.6,0.0,82,61,37,30.23,30.08,55,2,55,4.35
2013-9-14,78.7,65.1,54.2,56.8,52.0,48.4,84,65,43,30.08,29.90,13,4,13,0.00
2013-9-15,127.4,127.4,127.4,99.9,99.9,99.9,100,100,100,0.00,40.00,0,0,0,0.00
2013-9-16,127.4,63.2,58.1,99.9,55.3,53.4,100,77,65,30.27,30.19,11,4,11,0.02
2013-9-17,72.4,62.1,56.7,68.3,60.0,54.9,97,93,84,30.19,29.89,10,3,10,0.35
2013-9-18,90.7,84.0,78.5,70.1,68.7,67.5,70,61,50,29.75,29.71,16,6,16,6.94
2013-9-19,84.6,70.7,58.9,75.0,61.2,50.0,100,72,55,30.02,29.74,15,5,15,6.99
2013-9-20,75.0,60.8,50.0,75.0,48.3,44.0,100,66,43,30.09,29.97,14,3,14,7.14
2013-9-21,79.7,71.0,61.2,75.0,52.9,50.3,100,54,37,30.04,29.87,9,3,9,7.14
2013-9-22,84.6,62.7,55.4,58.7,53.4,51.2,87,74,34,29.91,29.87,13,3,13,0.00